createdAt,value
2022-09-13T00:00:07.809Z,89.40
2022-09-13T00:02:36.064Z,89.43
2022-09-13T00:05:04.288Z,89.02
2022-09-13T00:07:32.193Z,88.97
2022-09-13T00:10:00.195Z,89.25
2022-09-13T00:12:28.056Z,89.27
2022-09-13T00:14:55.867Z,89.29
2022-09-13T00:17:25.639Z,89.15
2022-09-13T00:19:53.468Z,89.38
2022-09-13T00:22:21.287Z,89.21
2022-09-13T00:24:49.302Z,89.53
2022-09-13T00:27:18.046Z,89.29
2022-09-13T00:29:46.136Z,88.96
2022-09-13T00:32:14.509Z,89.21
2022-09-13T00:34:43.713Z,89.49
2022-09-13T00:37:11.569Z,88.94
2022-09-13T00:39:39.633Z,89.13
2022-09-13T00:42:10.149Z,89.09
2022-09-13T00:44:55.303Z,89.21
2022-09-13T00:47:29.002Z,89.05
2022-09-13T00:50:04.026Z,88.99
2022-09-13T00:52:35.062Z,88.83
2022-09-13T00:55:06.293Z,88.67
2022-09-13T00:57:36.895Z,88.71
2022-09-13T01:00:13.060Z,88.69
2022-09-13T01:02:46.166Z,88.87
2022-09-13T01:05:18.111Z,88.92
2022-09-13T01:07:46.369Z,88.72
2022-09-13T01:10:14.260Z,88.69
2022-09-13T01:12:49.783Z,88.91
2022-09-13T01:15:17.621Z,88.98
2022-09-13T01:17:45.925Z,88.83
2022-09-13T01:20:16.503Z,88.92
2022-09-13T01:23:13.054Z,88.99
2022-09-13T01:26:12.370Z,89.02
2022-09-13T01:29:05.571Z,88.90
2022-09-13T01:31:39.810Z,88.65
2022-09-13T01:34:19.306Z,88.84
2022-09-13T01:37:17.981Z,89.01
2022-09-13T01:40:03.854Z,89.13
2022-09-13T01:42:43.923Z,88.96
2022-09-13T01:45:26.140Z,89.04
2022-09-13T01:47:59.570Z,88.90
2022-09-13T01:50:38.335Z,89.12
2022-09-13T01:53:16.257Z,88.96
2022-09-13T01:55:47.661Z,89.14
2022-09-13T01:58:24.427Z,89.22
2022-09-13T02:00:59.609Z,89.08
2022-09-13T02:03:34.979Z,89.36
2022-09-13T02:06:07.358Z,89.14
2022-09-13T02:08:41.838Z,89.16
2022-09-13T02:11:12.572Z,89.38
2022-09-13T02:13:46.201Z,89.37
2022-09-13T02:16:19.113Z,89.23
2022-09-13T02:18:53.797Z,89.11
2022-09-13T02:21:27.174Z,89.28
2022-09-13T02:24:00.326Z,89.23
2022-09-13T02:26:30.345Z,89.21
2022-09-13T02:29:01.823Z,89.30
2022-09-13T02:31:33.801Z,89.39
2022-09-13T02:34:08.621Z,89.48
2022-09-13T02:36:41.775Z,89.63
2022-09-13T02:39:15.568Z,89.56
2022-09-13T02:41:50.218Z,89.49
2022-09-13T02:44:25.455Z,89.48
2022-09-13T02:47:12.180Z,89.67
2022-09-13T02:49:54.198Z,89.78
2022-09-13T02:52:35.054Z,89.78
2022-09-13T02:55:14.930Z,89.73
2022-09-13T02:57:55.134Z,90.00
2022-09-13T03:00:23.461Z,89.62
2022-09-13T03:02:53.901Z,90.01
2022-09-13T03:05:23.288Z,90.08
2022-09-13T03:07:52.946Z,90.07
2022-09-13T03:10:21.017Z,90.29
2022-09-13T03:13:04.244Z,90.48
2022-09-13T03:15:46.455Z,90.68
2022-09-13T03:18:32.131Z,90.69
2022-09-13T03:21:12.801Z,90.75
2022-09-13T03:23:50.283Z,90.75
2022-09-13T03:26:37.596Z,90.72
2022-09-13T03:29:20.052Z,90.44
2022-09-13T03:31:52.445Z,90.67
2022-09-13T03:34:31.870Z,90.86
2022-09-13T03:37:07.472Z,90.96
2022-09-13T03:39:41.673Z,90.98
2022-09-13T03:42:17.947Z,91.18
2022-09-13T03:44:50.087Z,91.28
2022-09-13T03:47:18.974Z,91.27
2022-09-13T03:49:47.516Z,91.39
2022-09-13T03:52:17.078Z,91.61
2022-09-13T03:54:44.994Z,91.67
2022-09-13T03:57:16.376Z,91.80
2022-09-13T03:59:47.393Z,91.88
2022-09-13T04:02:16.651Z,91.77
2022-09-13T04:04:45.569Z,91.92
2022-09-13T04:07:15.208Z,91.96
2022-09-13T04:09:44.451Z,91.89
2022-09-13T04:12:13.951Z,92.04
2022-09-13T04:14:43.356Z,92.09
2022-09-13T04:17:12.176Z,92.08
2022-09-13T04:19:40.425Z,92.22
2022-09-13T04:22:08.931Z,92.19
2022-09-13T04:24:37.841Z,92.42
2022-09-13T04:27:07.930Z,92.39
2022-09-13T04:29:35.903Z,92.44
2022-09-13T04:32:04.323Z,92.62
2022-09-13T04:34:32.191Z,92.52
2022-09-13T04:37:00.147Z,92.37
2022-09-13T04:39:28.274Z,92.35
2022-09-13T04:41:56.824Z,92.33
2022-09-13T04:44:27.902Z,92.30
2022-09-13T04:46:55.908Z,92.10
2022-09-13T04:49:23.772Z,91.99
2022-09-13T04:51:51.693Z,91.91
2022-09-13T04:54:19.648Z,91.82
2022-09-13T04:56:47.498Z,91.63
2022-09-13T04:59:15.873Z,91.53
2022-09-13T05:01:45.300Z,91.40
2022-09-13T05:04:13.400Z,91.30
2022-09-13T05:06:41.369Z,91.09
2022-09-13T05:09:14.264Z,91.18
2022-09-13T05:11:42.821Z,91.09
2022-09-13T05:14:12.117Z,90.99
2022-09-13T05:16:40.075Z,90.90
2022-09-13T05:19:10.309Z,90.78
2022-09-13T05:21:38.357Z,90.50
2022-09-13T05:24:06.359Z,90.32
2022-09-13T05:26:34.478Z,90.32
2022-09-13T05:29:02.752Z,90.44
2022-09-13T05:31:32.972Z,90.36
2022-09-13T05:34:03.476Z,90.41
2022-09-13T05:36:33.528Z,90.46
2022-09-13T05:41:50.362Z,90.24
2022-09-13T05:44:18.179Z,90.01
2022-09-13T05:46:48.378Z,90.04
2022-09-13T05:49:16.562Z,89.93
2022-09-13T05:51:45.785Z,89.88
2022-09-13T05:54:14.002Z,89.86
2022-09-13T05:56:42.174Z,89.82
2022-09-13T05:59:13.642Z,89.75
2022-09-13T06:01:42.119Z,89.56
2022-09-13T06:04:12.655Z,89.55
2022-09-13T06:06:40.524Z,89.42
2022-09-13T06:09:13.323Z,89.54
2022-09-13T06:11:41.489Z,89.20
2022-09-13T06:14:09.286Z,89.31
2022-09-13T06:16:38.134Z,89.11
2022-09-13T06:19:06.209Z,89.36
2022-09-13T06:21:34.099Z,89.20
2022-09-13T06:24:02.324Z,89.39
2022-09-13T06:26:31.888Z,89.43
2022-09-13T06:28:59.881Z,89.40
2022-09-13T06:31:29.490Z,89.47
2022-09-13T06:33:59.011Z,89.49
2022-09-13T06:36:27.536Z,89.46
2022-09-13T06:38:55.899Z,89.39
2022-09-13T06:41:27.323Z,89.32
2022-09-13T06:43:58.814Z,89.33
2022-09-13T06:46:28.407Z,89.06
2022-09-13T06:48:57.955Z,88.71
2022-09-13T06:51:26.876Z,88.69
2022-09-13T06:53:56.783Z,88.75
2022-09-13T06:56:26.166Z,88.73
2022-09-13T06:59:01.514Z,88.88
2022-09-13T07:01:31.803Z,88.66
2022-09-13T07:04:02.312Z,88.86
2022-09-13T07:06:34.194Z,88.83
2022-09-13T07:09:04.013Z,89.24
2022-09-13T07:11:35.106Z,89.82
2022-09-13T07:14:06.822Z,90.26
2022-09-13T07:16:38.617Z,90.59
2022-09-13T07:19:08.100Z,90.99
2022-09-13T07:21:36.625Z,91.38
2022-09-13T07:24:05.673Z,92.03
2022-09-13T07:26:33.826Z,92.94
2022-09-13T07:29:05.811Z,93.68
2022-09-13T07:31:36.749Z,94.91
2022-09-13T07:34:06.304Z,95.95
2022-09-13T07:36:36.871Z,96.96
2022-09-13T07:39:05.914Z,97.83
2022-09-13T07:41:34.642Z,98.37
2022-09-13T07:44:05.215Z,99.17
2022-09-13T07:46:34.279Z,99.72
2022-09-13T07:49:02.852Z,100.00
2022-09-13T07:51:32.755Z,100.00
2022-09-13T07:54:02.675Z,100.00
2022-09-13T07:56:32.194Z,100.00
2022-09-13T07:59:02.535Z,100.00
2022-09-13T08:01:35.841Z,100.00
2022-09-13T08:04:05.853Z,100.00
2022-09-13T08:06:35.637Z,100.00
2022-09-13T08:09:04.447Z,100.00
2022-09-13T08:11:35.612Z,100.00
2022-09-13T08:14:04.359Z,100.00
2022-09-13T08:16:34.994Z,100.00
2022-09-13T08:19:05.815Z,100.00
2022-09-13T08:21:35.980Z,100.00
2022-09-13T08:24:04.714Z,100.00
2022-09-13T08:26:35.428Z,100.00
2022-09-13T08:29:05.796Z,100.00
2022-09-13T08:31:36.202Z,100.00
2022-09-13T08:34:03.997Z,100.00
2022-09-13T08:36:32.070Z,100.00
2022-09-13T08:39:01.778Z,100.00
2022-09-13T08:41:54.412Z,100.00
2022-09-13T08:44:27.771Z,100.00
2022-09-13T08:47:05.458Z,100.00
2022-09-13T08:49:37.295Z,100.00
2022-09-13T08:52:21.929Z,100.00
2022-09-13T08:54:54.850Z,100.00
2022-09-13T08:57:32.366Z,100.00
2022-09-13T09:00:05.784Z,100.00
2022-09-13T09:02:52.606Z,100.00
2022-09-13T09:05:22.865Z,100.00
2022-09-13T09:07:54.605Z,100.00
2022-09-13T09:10:26.419Z,100.00
2022-09-13T09:12:58.633Z,100.00
2022-09-13T09:15:31.613Z,100.00
2022-09-13T09:18:04.879Z,100.00
2022-09-13T09:20:38.221Z,100.00
2022-09-13T09:23:16.778Z,100.00
2022-09-13T09:25:49.416Z,100.00
2022-09-13T09:28:19.597Z,100.00
2022-09-13T09:31:01.966Z,100.00
2022-09-13T09:33:59.423Z,100.00
2022-09-13T09:36:35.947Z,100.00
2022-09-13T09:39:05.905Z,100.00
2022-09-13T09:41:35.551Z,100.00
2022-09-13T09:44:18.051Z,100.00
2022-09-13T09:46:51.045Z,100.00
2022-09-13T09:49:45.309Z,100.00
2022-09-13T09:52:17.426Z,100.00
2022-09-13T09:54:46.689Z,100.00
2022-09-13T09:57:14.839Z,100.00
2022-09-13T09:59:42.754Z,100.00
2022-09-13T10:02:18.915Z,100.00
2022-09-13T10:04:57.982Z,100.00
2022-09-13T10:07:30.471Z,100.00
2022-09-13T10:10:03.995Z,100.00
2022-09-13T10:12:35.116Z,100.00
2022-09-13T10:15:20.588Z,100.00
2022-09-13T10:18:21.139Z,100.00
2022-09-13T10:21:06.283Z,100.00
2022-09-13T10:23:35.380Z,100.00
2022-09-13T10:26:10.179Z,100.00
2022-09-13T10:28:46.198Z,100.00
2022-09-13T10:31:17.468Z,100.00
2022-09-13T10:33:54.120Z,100.00
2022-09-13T10:36:50.546Z,100.00
2022-09-13T10:39:20.320Z,100.00
2022-09-13T10:41:52.917Z,100.00
2022-09-13T10:44:29.185Z,100.00
2022-09-13T10:47:00.387Z,100.00
2022-09-13T10:49:39.772Z,100.00
2022-09-13T10:52:33.064Z,100.00
2022-09-13T10:55:31.546Z,100.00
2022-09-13T10:58:18.787Z,100.00
2022-09-13T11:01:02.467Z,100.00
2022-09-13T11:03:49.766Z,100.00
2022-09-13T11:06:27.970Z,100.00
2022-09-13T11:09:08.582Z,100.00
2022-09-13T11:11:44.523Z,100.00
2022-09-13T11:14:23.937Z,100.00
2022-09-13T11:17:03.954Z,100.00
2022-09-13T11:19:58.888Z,100.00
2022-09-13T11:22:48.034Z,100.00
2022-09-13T11:25:33.154Z,100.00
2022-09-13T11:28:11.620Z,100.00
2022-09-13T11:30:53.228Z,100.00
2022-09-13T11:33:34.257Z,100.00
2022-09-13T11:36:24.666Z,100.00
2022-09-13T11:39:04.005Z,100.00
2022-09-13T11:41:44.464Z,100.00
2022-09-13T11:44:43.377Z,100.00
2022-09-13T11:47:22.025Z,100.00
2022-09-13T11:50:04.773Z,100.00
2022-09-13T11:52:45.006Z,100.00
2022-09-13T11:55:18.905Z,100.00
2022-09-13T11:57:51.336Z,100.00
2022-09-13T12:00:24.306Z,100.00
2022-09-13T12:03:00.573Z,100.00
2022-09-13T12:05:33.852Z,100.00
2022-09-13T12:08:07.861Z,100.00
2022-09-13T12:10:41.602Z,100.00
2022-09-13T12:13:18.557Z,100.00
2022-09-13T12:15:49.496Z,100.00
2022-09-13T12:18:22.673Z,100.00
2022-09-13T12:20:53.413Z,100.00
2022-09-13T12:23:26.664Z,100.00
2022-09-13T12:26:00.300Z,100.00
2022-09-13T12:28:35.606Z,100.00
2022-09-13T12:31:10.888Z,100.00
2022-09-13T12:33:42.779Z,100.00
2022-09-13T12:36:39.943Z,100.00
2022-09-13T12:39:33.943Z,100.00
2022-09-13T12:42:35.068Z,100.00
2022-09-13T12:45:22.664Z,100.00
2022-09-13T12:48:15.421Z,100.00
2022-09-13T12:50:51.282Z,100.00
2022-09-13T12:53:40.840Z,100.00
2022-09-13T12:56:35.342Z,100.00
2022-09-13T12:59:24.363Z,100.00
2022-09-13T13:01:54.452Z,100.00
2022-09-13T13:04:25.330Z,100.00
2022-09-13T13:06:56.750Z,100.00
2022-09-13T13:09:32.395Z,100.00
2022-09-13T13:12:02.828Z,100.00
2022-09-13T13:14:46.201Z,100.00
2022-09-13T13:17:41.530Z,100.00
2022-09-13T13:20:48.327Z,100.00
2022-09-13T13:23:19.860Z,100.00
2022-09-13T13:26:32.678Z,100.00
2022-09-13T13:29:15.525Z,100.00
2022-09-13T13:32:07.827Z,100.00
2022-09-13T13:34:42.356Z,100.00
2022-09-13T13:37:39.019Z,100.00
2022-09-13T13:40:29.232Z,100.00
2022-09-13T13:43:31.747Z,100.00
2022-09-13T13:46:15.830Z,100.00
2022-09-13T13:48:44.238Z,100.00
2022-09-13T13:51:31.040Z,100.00
2022-09-13T13:54:03.120Z,100.00
2022-09-13T13:56:35.175Z,100.00
2022-09-13T13:59:13.574Z,100.00
2022-09-13T14:01:47.315Z,100.00
2022-09-13T14:04:42.221Z,100.00
2022-09-13T14:07:24.753Z,100.00
2022-09-13T14:09:58.625Z,100.00
2022-09-13T14:12:35.114Z,100.00
2022-09-13T14:15:23.942Z,100.00
2022-09-13T14:18:12.408Z,100.00
2022-09-13T14:20:59.244Z,100.00
2022-09-13T14:23:28.481Z,100.00
2022-09-13T14:25:58.473Z,100.00
2022-09-13T14:28:26.665Z,100.00
2022-09-13T14:30:57.885Z,100.00
2022-09-13T14:33:32.210Z,100.00
2022-09-13T14:36:03.868Z,100.00
2022-09-13T14:38:35.791Z,100.00
2022-09-13T14:41:15.694Z,100.00
2022-09-13T14:43:45.057Z,100.00
2022-09-13T14:46:17.825Z,100.00
2022-09-13T14:48:51.720Z,100.00
2022-09-13T14:51:27.121Z,100.00
2022-09-13T14:54:01.188Z,100.00
2022-09-13T14:56:37.958Z,100.00
2022-09-13T14:59:13.168Z,100.00
2022-09-13T15:01:41.033Z,100.00
2022-09-13T15:04:09.375Z,100.00
2022-09-13T15:06:39.499Z,100.00
2022-09-13T15:09:28.453Z,100.00
2022-09-13T15:12:01.427Z,100.00
2022-09-13T15:14:31.295Z,100.00
2022-09-13T15:17:09.472Z,100.00
2022-09-13T15:19:39.977Z,100.00
2022-09-13T15:22:23.443Z,100.00
2022-09-13T15:24:54.839Z,100.00
2022-09-13T15:27:27.550Z,100.00
2022-09-13T15:29:57.529Z,100.00
2022-09-13T15:32:31.943Z,100.00
2022-09-13T15:35:01.859Z,100.00
2022-09-13T15:37:36.063Z,99.25
2022-09-13T15:40:17.366Z,98.89
2022-09-13T15:42:50.289Z,98.66
2022-09-13T15:45:19.182Z,98.44
2022-09-13T15:47:48.982Z,98.18
2022-09-13T15:50:27.068Z,97.64
2022-09-13T15:52:56.054Z,97.09
2022-09-13T15:55:27.092Z,96.50
2022-09-13T15:57:55.351Z,96.71
2022-09-13T16:00:24.708Z,97.01
2022-09-13T16:02:52.897Z,97.09
2022-09-13T16:05:21.226Z,97.42
2022-09-13T16:07:49.053Z,97.28
2022-09-13T16:10:20.028Z,97.12
2022-09-13T16:12:49.414Z,97.37
2022-09-13T16:15:17.358Z,97.21
2022-09-13T16:17:45.736Z,97.35
2022-09-13T16:20:15.512Z,97.55
2022-09-13T16:22:43.436Z,97.78
2022-09-13T16:25:14.125Z,98.13
2022-09-13T16:27:43.003Z,98.24
2022-09-13T16:30:14.960Z,98.68
2022-09-13T16:32:43.262Z,99.26
2022-09-13T16:35:12.469Z,99.07
2022-09-13T16:37:41.274Z,99.37
2022-09-13T16:40:10.631Z,99.56
2022-09-13T16:42:39.229Z,99.67
2022-09-13T16:45:08.246Z,100.00
2022-09-13T16:47:37.521Z,100.00
2022-09-13T16:50:06.451Z,100.00
2022-09-13T16:52:36.333Z,100.00
2022-09-13T16:55:04.969Z,100.00
2022-09-13T16:57:33.074Z,100.00
2022-09-13T17:00:01.266Z,100.00
2022-09-13T17:02:29.574Z,100.00
2022-09-13T17:04:58.982Z,100.00
2022-09-13T17:07:27.498Z,100.00
2022-09-13T17:09:55.416Z,100.00
2022-09-13T17:12:23.273Z,100.00
2022-09-13T17:14:51.799Z,100.00
2022-09-13T17:17:20.383Z,100.00
2022-09-13T17:19:48.363Z,100.00
2022-09-13T17:22:17.950Z,100.00
2022-09-13T17:24:46.214Z,100.00
2022-09-13T17:27:14.080Z,100.00
2022-09-13T17:29:42.074Z,100.00
2022-09-13T17:32:10.064Z,100.00
2022-09-13T17:34:37.990Z,100.00
2022-09-13T17:37:06.937Z,100.00
2022-09-13T17:39:36.221Z,100.00
2022-09-13T17:42:04.131Z,100.00
2022-09-13T17:44:32.076Z,100.00
2022-09-13T17:46:59.996Z,100.00
2022-09-13T17:49:27.808Z,100.00
2022-09-13T17:51:55.939Z,100.00
2022-09-13T17:54:24.023Z,100.00
2022-09-13T17:56:53.246Z,100.00
2022-09-13T17:59:22.693Z,100.00
2022-09-13T18:01:52.212Z,100.00
2022-09-13T18:04:22.330Z,100.00
2022-09-13T18:06:52.217Z,100.00
2022-09-13T18:09:20.374Z,100.00
2022-09-13T18:11:48.482Z,100.00
2022-09-13T18:14:19.594Z,100.00
2022-09-13T18:16:49.365Z,100.00
2022-09-13T18:19:17.590Z,100.00
2022-09-13T18:21:45.572Z,100.00
2022-09-13T18:24:13.588Z,100.00
2022-09-13T18:26:41.506Z,100.00
2022-09-13T18:29:12.629Z,100.00
2022-09-13T18:31:43.919Z,100.00
2022-09-13T18:34:14.151Z,100.00
2022-09-13T18:36:42.306Z,100.00
2022-09-13T18:39:15.963Z,100.00
2022-09-13T18:41:45.294Z,100.00
2022-09-13T18:44:13.827Z,100.00
2022-09-13T18:46:43.774Z,100.00
2022-09-13T18:49:12.172Z,100.00
2022-09-13T18:51:41.783Z,100.00
2022-09-13T18:54:13.321Z,100.00
2022-09-13T18:56:41.405Z,100.00
2022-09-13T18:59:11.100Z,100.00
2022-09-13T19:01:40.894Z,100.00
2022-09-13T19:04:14.066Z,100.00
2022-09-13T19:06:43.762Z,100.00
2022-09-13T19:09:12.392Z,100.00
2022-09-13T19:11:47.273Z,100.00
2022-09-13T19:14:18.456Z,100.00
2022-09-13T19:16:46.391Z,100.00
2022-09-13T19:19:15.644Z,100.00
2022-09-13T19:21:44.174Z,100.00
2022-09-13T19:24:18.235Z,100.00
2022-09-13T19:26:48.376Z,100.00
2022-09-13T19:29:18.112Z,100.00
2022-09-13T19:31:49.640Z,100.00
2022-09-13T19:34:20.733Z,100.00
2022-09-13T19:36:50.683Z,100.00
2022-09-13T19:39:18.976Z,100.00
2022-09-13T19:41:46.831Z,100.00
2022-09-13T19:44:15.981Z,100.00
2022-09-13T19:46:44.246Z,100.00
2022-09-13T19:49:15.116Z,100.00
2022-09-13T19:51:51.855Z,100.00
2022-09-13T19:54:20.632Z,100.00
2022-09-13T19:56:48.642Z,100.00
2022-09-13T19:59:19.814Z,100.00
2022-09-13T20:01:48.924Z,100.00
2022-09-13T20:04:18.778Z,100.00
2022-09-13T20:06:50.247Z,100.00
2022-09-13T20:09:19.623Z,100.00
2022-09-13T20:11:48.715Z,100.00
2022-09-13T20:14:18.765Z,100.00
2022-09-13T20:16:47.901Z,100.00
2022-09-13T20:22:10.041Z,100.00
2022-09-13T20:24:38.274Z,100.00
2022-09-13T20:27:06.496Z,100.00
2022-09-13T20:29:34.613Z,100.00
2022-09-13T20:32:02.877Z,100.00
2022-09-13T20:34:31.819Z,100.00
2022-09-13T20:36:59.881Z,100.00
2022-09-13T20:39:29.277Z,100.00
2022-09-13T20:41:57.221Z,100.00
2022-09-13T20:44:25.116Z,100.00
2022-09-13T20:46:53.017Z,100.00
2022-09-13T20:49:21.913Z,100.00
2022-09-13T20:51:50.122Z,100.00
2022-09-13T20:54:18.257Z,100.00
2022-09-13T20:56:47.436Z,100.00
2022-09-13T20:59:15.327Z,100.00
2022-09-13T21:01:43.455Z,100.00
2022-09-13T21:04:11.463Z,100.00
2022-09-13T21:07:01.223Z,100.00
2022-09-13T21:09:28.987Z,100.00
2022-09-13T21:11:58.466Z,100.00
2022-09-13T21:14:26.447Z,100.00
2022-09-13T21:16:54.397Z,100.00
2022-09-13T21:19:23.118Z,100.00
2022-09-13T21:21:51.507Z,100.00
2022-09-13T21:24:19.758Z,100.00
2022-09-13T21:26:49.694Z,100.00
2022-09-13T21:29:18.975Z,100.00
2022-09-13T21:31:47.103Z,100.00
2022-09-13T21:34:16.763Z,100.00
2022-09-13T21:36:46.128Z,100.00
2022-09-13T21:39:14.849Z,100.00
2022-09-13T21:41:43.479Z,100.00
2022-09-13T21:44:11.890Z,100.00
2022-09-13T21:46:42.150Z,100.00
2022-09-13T21:49:11.817Z,100.00
2022-09-13T21:51:41.831Z,100.00
2022-09-13T21:54:14.262Z,100.00
2022-09-13T21:56:44.104Z,100.00
2022-09-13T21:59:14.658Z,100.00
2022-09-13T22:01:47.001Z,100.00
2022-09-13T22:04:17.688Z,100.00
2022-09-13T22:06:46.922Z,100.00
2022-09-13T22:09:15.916Z,100.00
2022-09-13T22:11:46.058Z,100.00
2022-09-13T22:14:15.786Z,100.00
2022-09-13T22:16:46.971Z,100.00
2022-09-13T22:19:17.160Z,100.00
2022-09-13T22:21:46.914Z,100.00
2022-09-13T22:24:17.023Z,100.00
2022-09-13T22:26:45.989Z,100.00
2022-09-13T22:29:15.246Z,100.00
2022-09-13T22:31:46.157Z,100.00
2022-09-13T22:34:15.965Z,100.00
2022-09-13T22:36:46.410Z,100.00
2022-09-13T22:39:17.260Z,100.00
2022-09-13T22:41:46.111Z,100.00
2022-09-13T22:44:14.170Z,100.00
2022-09-13T22:46:45.828Z,100.00
2022-09-13T22:49:15.531Z,100.00
2022-09-13T22:51:45.089Z,100.00
2022-09-13T22:54:13.681Z,100.00
2022-09-13T22:56:42.088Z,100.00
2022-09-13T22:59:13.932Z,100.00
2022-09-13T23:01:42.528Z,100.00
2022-09-13T23:04:12.662Z,100.00
2022-09-13T23:06:41.217Z,100.00
2022-09-13T23:09:10.238Z,100.00
2022-09-13T23:11:40.030Z,100.00
2022-09-13T23:14:10.924Z,100.00
2022-09-13T23:16:41.122Z,100.00
2022-09-13T23:19:09.509Z,100.00
2022-09-13T23:21:39.129Z,100.00
2022-09-13T23:24:09.165Z,100.00
2022-09-13T23:26:37.093Z,100.00
2022-09-13T23:29:06.011Z,100.00
2022-09-13T23:31:36.497Z,100.00
2022-09-13T23:34:06.127Z,100.00
2022-09-13T23:36:37.625Z,100.00
2022-09-13T23:39:09.068Z,100.00
2022-09-13T23:41:37.072Z,100.00
2022-09-13T23:44:05.929Z,100.00
2022-09-13T23:46:33.938Z,100.00
2022-09-13T23:49:01.920Z,100.00
2022-09-13T23:51:29.984Z,100.00
2022-09-13T23:53:58.836Z,100.00
2022-09-13T23:56:30.238Z,100.00
2022-09-13T23:58:59.026Z,100.00
